Time;durP1;ratioP1;P1;durP2;ratioP2;P2;SDS_P1;SDS_P2;PMS_P1;PMS_P2;Temp;Humidity;BMP_temperature;BMP_pressure;BME280_temperature;BME280_humidity;BME280_pressure;Samples;Min_cycle;Max_cycle;Signal;HPM_P1;HPM_P2
2023/04/26 00:01:52;;;;;;;6.78;5.65;;;;;;;9.47;92.05;99629.75;5109592;28;20051;-67
2023/04/26 00:04:18;;;;;;;6.78;5.07;;;;;;;9.35;92.14;99614.03;5108804;28;20548;-66
2023/04/26 00:06:44;;;;;;;6.70;5.53;;;;;;;9.44;92.43;99630.03;5109679;28;20061;-66
2023/04/26 00:09:10;;;;;;;7.13;5.57;;;;;;;9.42;92.70;99625.84;5109456;28;20015;-66
2023/04/26 00:11:35;;;;;;;7.00;5.22;;;;;;;9.35;93.58;99625.53;5108926;28;20027;-66
2023/04/26 00:14:01;;;;;;;5.65;4.43;;;;;;;9.34;93.58;99631.91;5109389;28;20031;-67
2023/04/26 00:16:26;;;;;;;6.55;4.80;;;;;;;9.43;93.02;99630.19;5106520;28;20034;-66
2023/04/26 00:18:53;;;;;;;6.55;4.80;;;;;;;9.44;93.60;99629.22;5109494;28;20115;-66
2023/04/26 00:21:18;;;;;;;6.70;5.63;;;;;;;9.21;93.46;99583.19;5109678;28;20027;-67
2023/04/26 00:23:44;;;;;;;6.03;4.97;;;;;;;9.58;92.90;99626.06;5109611;28;20027;-66
2023/04/26 00:26:09;;;;;;;6.72;5.47;;;;;;;9.56;93.11;99638.75;5106818;28;20049;-66
2023/04/26 00:28:34;;;;;;;5.88;5.13;;;;;;;9.49;93.88;99633.16;5108681;28;20506;-66
2023/04/26 00:31:00;;;;;;;7.93;5.60;;;;;;;9.35;94.27;99624.72;5108147;28;20227;-66
2023/04/26 00:33:25;;;;;;;6.20;5.32;;;;;;;9.45;94.86;99637.09;5107915;28;20016;-67
2023/04/26 00:35:51;;;;;;;8.20;5.65;;;;;;;9.43;94.89;99644.41;5108254;28;20019;-66
2023/04/26 00:38:17;;;;;;;7.57;5.55;;;;;;;9.39;94.84;99647.53;5107767;28;20131;-66
2023/04/26 00:40:42;;;;;;;7.97;5.53;;;;;;;9.39;95.70;99647.53;5108134;28;20208;-66
2023/04/26 00:43:08;;;;;;;9.02;5.35;;;;;;;9.56;94.72;99658.34;5106945;28;20024;-67
2023/04/26 00:45:34;;;;;;;6.68;5.75;;;;;;;9.49;95.32;99654.56;5108309;28;20020;-66
2023/04/26 00:48:01;;;;;;;7.95;5.95;;;;;;;9.32;95.34;99628.50;5108540;28;20015;-66
2023/04/26 00:50:27;;;;;;;6.85;5.60;;;;;;;9.43;95.66;99663.16;5105232;28;20019;-66
2023/04/26 00:52:54;;;;;;;6.10;5.30;;;;;;;9.41;96.09;99659.75;5108319;28;20068;-66
2023/04/26 00:55:22;;;;;;;6.75;5.47;;;;;;;9.38;96.58;99660.06;5108004;28;20467;-66
2023/04/26 00:57:47;;;;;;;6.50;5.53;;;;;;;9.38;96.39;99657.38;5105410;28;20032;-67
2023/04/26 01:00:15;;;;;;;8.45;6.03;;;;;;;9.40;96.70;99657.22;5108222;28;20015;-67
2023/04/26 01:02:41;;;;;;;6.35;5.43;;;;;;;9.39;96.85;99667.13;5108167;28;20027;-67
2023/04/26 01:05:06;;;;;;;6.63;5.85;;;;;;;9.41;96.67;99662.44;5107797;28;20106;-66
2023/04/26 01:07:33;;;;;;;6.15;5.20;;;;;;;9.39;96.49;99655.56;5107855;28;20111;-66
2023/04/26 01:09:58;;;;;;;7.82;5.95;;;;;;;9.32;96.54;99636.53;5107623;28;20050;-67
2023/04/26 01:12:25;;;;;;;8.63;6.78;;;;;;;9.42;96.75;99658.81;5107945;28;20495;-67
2023/04/26 01:14:51;;;;;;;9.73;6.35;;;;;;;9.55;95.65;99666.50;5107253;28;20030;-66
2023/04/26 01:17:18;;;;;;;9.60;6.28;;;;;;;9.50;96.44;99668.75;5108295;28;20031;-67
2023/04/26 01:19:48;;;;;;;9.13;6.35;;;;;;;9.50;96.32;99666.94;5108304;28;20713;-67
2023/04/26 01:22:13;;;;;;;10.63;6.25;;;;;;;9.43;96.59;99659.63;5107147;28;20032;-67
2023/04/26 01:24:42;;;;;;;6.93;5.85;;;;;;;9.30;96.52;99643.88;5107716;28;20499;-67
2023/04/26 01:27:07;;;;;;;7.25;6.35;;;;;;;9.36;96.68;99664.72;5108324;28;20042;-67
2023/04/26 01:29:33;;;;;;;6.50;5.78;;;;;;;9.47;96.61;99677.94;5108277;28;20027;-67
2023/04/26 01:31:59;;;;;;;7.75;6.25;;;;;;;9.46;96.60;99681.59;5108324;28;20479;-67
2023/04/26 01:34:24;;;;;;;7.13;5.68;;;;;;;9.51;96.74;99678.50;5108954;28;20091;-67
2023/04/26 01:36:50;;;;;;;11.85;6.25;;;;;;;9.49;96.54;99667.94;5106908;28;20046;-67
2023/04/26 01:39:16;;;;;;;10.70;6.43;;;;;;;9.52;95.66;99673.00;5108164;28;20047;-66
2023/04/26 01:41:41;;;;;;;8.13;6.20;;;;;;;9.57;95.84;99683.28;5108518;28;20035;-66
2023/04/26 01:44:07;;;;;;;7.13;5.97;;;;;;;9.49;95.95;99673.28;5108381;28;20035;-67
2023/04/26 01:46:32;;;;;;;8.88;5.95;;;;;;;9.52;96.61;99685.53;5108571;28;20709;-67
2023/04/26 01:48:57;;;;;;;7.32;6.35;;;;;;;9.53;96.50;99687.22;5109100;28;20032;-66
2023/04/26 01:51:23;;;;;;;8.95;6.47;;;;;;;9.58;95.92;99685.81;5112602;28;20021;-67
2023/04/26 01:53:48;;;;;;;11.30;6.18;;;;;;;9.51;96.02;99686.53;5111982;27;20063;-67
2023/04/26 01:56:14;;;;;;;8.18;6.43;;;;;;;9.56;96.10;99692.28;5111298;28;20019;-67
2023/04/26 01:58:40;;;;;;;9.20;6.90;;;;;;;9.62;95.97;99703.28;5112070;27;20103;-67
2023/04/26 02:01:07;;;;;;;9.30;6.57;;;;;;;9.60;96.05;99702.56;5112407;28;20107;-67
2023/04/26 02:03:34;;;;;;;9.27;6.78;;;;;;;9.59;95.95;99700.88;5110618;28;20395;-66
2023/04/26 02:05:59;;;;;;;8.27;6.68;;;;;;;9.58;95.59;99701.03;5112307;28;20548;-66
2023/04/26 02:08:25;;;;;;;11.10;7.43;;;;;;;9.61;95.32;99701.56;5112052;28;20020;-67
2023/04/26 02:10:50;;;;;;;11.13;7.35;;;;;;;9.51;95.80;99690.03;5112563;28;20110;-67
2023/04/26 02:13:16;;;;;;;12.18;7.93;;;;;;;9.61;95.20;99698.88;5112340;28;20039;-66
2023/04/26 02:15:45;;;;;;;9.93;7.22;;;;;;;9.29;95.24;99652.91;5112097;28;20458;-67
2023/04/26 02:18:11;;;;;;;7.70;6.40;;;;;;;9.51;95.69;99695.38;5111109;28;20372;-66
2023/04/26 02:20:43;;;;;;;8.48;6.88;;;;;;;9.49;94.99;99681.31;5110598;28;20114;-66
2023/04/26 02:23:09;;;;;;;8.20;7.03;;;;;;;9.44;95.17;99677.41;5111091;28;20067;-67
2023/04/26 02:25:36;;;;;;;9.35;6.75;;;;;;;9.58;95.25;99709.06;5109789;28;20035;-67
2023/04/26 02:28:01;;;;;;;6.72;5.68;;;;;;;9.32;94.92;99671.31;5110892;28;20456;-67
2023/04/26 02:30:27;;;;;;;8.27;6.85;;;;;;;9.57;94.75;99710.88;5110974;28;20031;-67
2023/04/26 02:32:53;;;;;;;11.40;7.50;;;;;;;9.59;94.92;99708.06;5110775;28;20797;-67
2023/04/26 02:35:19;;;;;;;10.32;8.18;;;;;;;9.59;94.58;99708.91;5107898;28;20034;-66
2023/04/26 02:37:47;;;;;;;8.55;7.55;;;;;;;9.60;94.81;99707.06;5110556;28;20027;-66
2023/04/26 02:40:14;;;;;;;7.75;6.90;;;;;;;9.63;94.04;99707.63;5110524;28;20028;-67
2023/04/26 02:42:39;;;;;;;9.10;7.50;;;;;;;9.59;94.14;99703.56;5110226;28;20058;-66
2023/04/26 02:45:06;;;;;;;8.55;7.63;;;;;;;9.64;94.20;99708.50;5110411;28;20023;-66
2023/04/26 02:47:31;;;;;;;8.80;7.47;;;;;;;9.65;93.91;99713.69;5110363;27;20038;-66
2023/04/26 02:49:57;;;;;;;10.73;7.80;;;;;;;9.66;93.50;99718.06;5109476;28;20429;-66
2023/04/26 02:52:22;;;;;;;9.60;7.63;;;;;;;9.60;93.19;99702.56;5109973;28;20051;-66
2023/04/26 02:54:48;;;;;;;10.02;7.10;;;;;;;9.68;93.24;99716.09;5110800;28;20011;-66
2023/04/26 02:57:13;;;;;;;11.20;7.57;;;;;;;9.66;92.72;99717.19;5110762;28;20036;-66
2023/04/26 02:59:39;;;;;;;9.57;7.80;;;;;;;9.63;92.48;99717.50;5109892;28;20045;-67
2023/04/26 03:02:04;;;;;;;10.45;7.43;;;;;;;9.67;92.38;99727.78;5110672;28;20111;-66
2023/04/26 03:04:33;;;;;;;9.05;7.78;;;;;;;9.70;92.36;99732.84;5109321;28;20027;-66
2023/04/26 03:06:58;;;;;;;10.95;7.13;;;;;;;9.67;91.85;99735.81;5110161;28;20503;-67
2023/04/26 03:09:24;;;;;;;11.90;7.68;;;;;;;9.67;91.46;99738.47;5111062;28;20129;-67
2023/04/26 03:11:49;;;;;;;11.70;7.90;;;;;;;9.66;91.90;99735.94;5110865;28;20494;-66
2023/04/26 03:14:15;;;;;;;8.50;7.57;;;;;;;9.60;91.67;99732.00;5111036;28;20043;-67
2023/04/26 03:16:41;;;;;;;10.15;7.07;;;;;;;9.65;91.21;99747.66;5111462;28;20036;-67
2023/04/26 03:19:07;;;;;;;10.45;7.70;;;;;;;9.63;91.18;99745.13;5111333;28;20023;-67
2023/04/26 03:21:32;;;;;;;10.20;7.80;;;;;;;9.61;91.01;99749.75;5111259;28;20020;-67
2023/04/26 03:23:58;;;;;;;9.93;7.80;;;;;;;9.62;90.46;99758.63;5111447;28;20036;-61
2023/04/26 03:26:23;;;;;;;9.95;7.25;;;;;;;9.56;90.26;99745.81;5110976;28;20467;-61
2023/04/26 03:28:49;;;;;;;11.68;8.35;;;;;;;9.62;90.16;99762.19;5110961;28;20114;-67
2023/04/26 03:31:15;;;;;;;9.13;7.10;;;;;;;9.50;89.68;99752.59;5111496;28;20025;-67
2023/04/26 03:33:40;;;;;;;8.93;6.80;;;;;;;9.61;89.48;99775.69;5111023;28;20015;-67
2023/04/26 03:36:06;;;;;;;11.50;7.57;;;;;;;9.56;89.55;99776.13;5111323;28;20043;-67
2023/04/26 03:38:32;;;;;;;7.57;6.78;;;;;;;9.55;88.96;99763.75;5110738;28;20043;-67
2023/04/26 03:40:57;;;;;;;7.93;6.55;;;;;;;9.51;89.10;99759.63;5111022;28;20133;-67
2023/04/26 03:43:23;;;;;;;9.82;6.70;;;;;;;9.62;88.64;99777.38;5110714;28;20038;-67
2023/04/26 03:45:49;;;;;;;12.05;7.15;;;;;;;9.61;88.38;99779.22;5110866;28;20041;-67
2023/04/26 03:48:15;;;;;;;8.02;6.90;;;;;;;9.63;88.19;99785.28;5110993;28;20039;-67
2023/04/26 03:50:40;;;;;;;11.73;7.50;;;;;;;9.62;88.24;99788.94;5110645;27;20031;-67
2023/04/26 03:53:06;;;;;;;9.90;6.78;;;;;;;9.65;87.66;99794.03;5110732;28;20050;-67
2023/04/26 03:55:32;;;;;;;11.02;7.03;;;;;;;9.67;87.36;99802.75;5110386;28;20475;-67
2023/04/26 03:57:57;;;;;;;11.18;6.60;;;;;;;9.67;87.23;99804.59;5110409;28;20114;-67
2023/04/26 04:00:23;;;;;;;8.07;6.53;;;;;;;9.70;87.27;99815.03;5108256;28;20063;-67
2023/04/26 04:02:48;;;;;;;8.05;6.63;;;;;;;9.71;86.63;99820.25;5109269;28;20016;-67
2023/04/26 04:05:14;;;;;;;10.25;7.35;;;;;;;9.69;86.39;99803.47;5110381;28;20027;-67
2023/04/26 04:07:39;;;;;;;7.30;5.82;;;;;;;9.70;86.30;99807.81;5106035;28;20065;-67
2023/04/26 04:10:06;;;;;;;8.07;5.57;;;;;;;9.75;85.81;99812.75;5109079;28;20383;-67
2023/04/26 04:12:31;;;;;;;10.23;5.90;;;;;;;9.74;84.98;99811.06;5109287;28;20028;-67
2023/04/26 04:14:57;;;;;;;8.73;6.22;;;;;;;9.77;84.48;99821.50;5109140;28;20036;-67
2023/04/26 04:17:22;;;;;;;8.73;6.10;;;;;;;9.91;84.39;99839.81;5109600;28;20456;-67
2023/04/26 04:19:48;;;;;;;10.27;6.40;;;;;;;9.85;83.51;99826.97;5109374;28;20051;-67
2023/04/26 04:22:13;;;;;;;7.03;6.25;;;;;;;9.95;83.19;99836.69;5110106;28;20049;-67
2023/04/26 04:24:41;;;;;;;7.85;6.57;;;;;;;9.87;82.46;99820.47;5109229;28;20076;-67
2023/04/26 04:27:06;;;;;;;6.97;5.90;;;;;;;10.08;81.29;99839.97;5108253;28;20023;-66
2023/04/26 04:29:32;;;;;;;7.40;5.53;;;;;;;10.15;81.50;99850.94;5107422;28;20031;-68
2023/04/26 04:31:58;;;;;;;7.53;5.63;;;;;;;10.25;80.17;99844.59;5108932;28;20076;-67
2023/04/26 04:34:23;;;;;;;7.32;5.80;;;;;;;10.26;80.17;99840.06;5109758;28;20038;-67
2023/04/26 04:36:52;;;;;;;8.13;5.03;;;;;;;10.38;79.68;99868.41;5108885;28;20031;-67
2023/04/26 04:39:17;;;;;;;8.77;5.53;;;;;;;10.53;77.33;99857.06;5110038;28;20075;-67
2023/04/26 04:41:46;;;;;;;8.02;5.43;;;;;;;10.48;77.52;99863.88;5108413;28;20486;-67
2023/04/26 04:44:15;;;;;;;8.15;5.00;;;;;;;10.38;77.76;99855.84;5110295;28;20058;-67
2023/04/26 04:46:41;;;;;;;7.50;5.25;;;;;;;10.46;78.16;99861.34;5109238;28;20044;-67
2023/04/26 04:49:08;;;;;;;8.05;5.90;;;;;;;10.49;77.91;99865.56;5109922;28;20113;-67
2023/04/26 04:51:34;;;;;;;7.72;5.40;;;;;;;10.43;77.75;99848.22;5109948;28;20023;-67
2023/04/26 04:54:11;;;;;;;7.82;5.10;;;;;;;10.59;77.94;99864.53;5109762;28;20069;-67
2023/04/26 04:56:36;;;;;;;6.85;5.05;;;;;;;10.70;77.26;99867.03;5108217;28;20040;-68
2023/04/26 04:59:03;;;;;;;9.48;5.20;;;;;;;10.90;76.42;99881.22;5109065;28;20024;-67
2023/04/26 05:01:31;;;;;;;8.63;5.00;;;;;;;10.99;75.18;99875.81;5109214;28;20061;-67
2023/04/26 05:03:57;;;;;;;8.05;5.68;;;;;;;11.23;73.56;99884.16;5109777;28;20023;-67
2023/04/26 05:06:23;;;;;;;7.10;4.70;;;;;;;11.43;72.14;99883.09;5106793;28;20119;-67
2023/04/26 05:08:49;;;;;;;7.00;4.63;;;;;;;11.53;71.16;99870.44;5109785;28;20039;-66
2023/04/26 05:11:14;;;;;;;6.18;4.32;;;;;;;11.68;69.90;99873.47;5108465;28;20019;-67
2023/04/26 05:13:40;;;;;;;6.80;4.25;;;;;;;11.86;69.47;99882.38;5109115;28;21106;-66
2023/04/26 05:16:05;;;;;;;7.60;5.03;;;;;;;12.00;68.47;99883.69;5108386;28;20122;-67
2023/04/26 05:18:31;;;;;;;7.45;4.40;;;;;;;12.01;67.62;99863.84;5109565;28;20371;-67
2023/04/26 05:20:57;;;;;;;9.68;4.65;;;;;;;12.22;67.03;99878.66;5108483;28;20046;-66
2023/04/26 05:23:22;;;;;;;8.30;4.28;;;;;;;12.32;66.09;99883.97;5112273;28;20023;-66
2023/04/26 05:25:47;;;;;;;8.63;4.63;;;;;;;12.33;65.44;99891.03;5113144;28;20491;-66
2023/04/26 05:28:13;;;;;;;5.63;4.15;;;;;;;12.30;65.03;99881.44;5113440;28;20600;-67
2023/04/26 05:30:39;;;;;;;7.93;3.85;;;;;;;12.41;64.63;99888.41;5112349;27;20024;-67
2023/04/26 05:33:05;;;;;;;7.78;4.20;;;;;;;12.38;64.37;99880.66;5111256;28;20057;-67
2023/04/26 05:35:32;;;;;;;7.43;4.10;;;;;;;12.48;63.76;99882.22;5110822;28;20053;-67
2023/04/26 05:37:57;;;;;;;10.18;3.95;;;;;;;12.60;62.73;99907.88;5111242;28;20038;-67
2023/04/26 05:40:22;;;;;;;6.47;3.78;;;;;;;12.64;61.94;99901.16;5111066;28;20472;-66
2023/04/26 05:42:49;;;;;;;7.20;3.83;;;;;;;12.67;61.96;99900.03;5111468;28;20476;-67
2023/04/26 05:45:15;;;;;;;7.03;3.50;;;;;;;12.74;61.30;99901.91;5110981;28;20353;-66
2023/04/26 05:47:40;;;;;;;5.90;3.33;;;;;;;12.87;60.93;99902.31;5110931;28;20039;-66
2023/04/26 05:50:07;;;;;;;4.55;3.25;;;;;;;13.01;60.55;99911.69;5111429;28;20057;-67
2023/04/26 05:52:32;;;;;;;8.60;3.38;;;;;;;13.18;60.44;99921.53;5110948;28;20031;-66
2023/04/26 05:54:58;;;;;;;4.28;3.25;;;;;;;13.33;58.87;99923.47;5111311;28;20019;-66
2023/04/26 05:57:23;;;;;;;5.50;3.15;;;;;;;13.37;58.18;99915.91;5110943;28;20392;-66
2023/04/26 05:59:49;;;;;;;5.82;2.83;;;;;;;13.41;55.97;99901.09;5109411;28;20093;-67
2023/04/26 06:02:15;;;;;;;7.43;3.13;;;;;;;13.67;54.44;99918.03;5110792;28;20031;-67
2023/04/26 06:04:40;;;;;;;6.47;3.22;;;;;;;13.64;54.04;99916.50;5109543;28;20015;-66
2023/04/26 06:07:06;;;;;;;5.43;3.28;;;;;;;13.72;53.14;99923.78;5109430;28;20027;-66
2023/04/26 06:09:31;;;;;;;4.20;2.67;;;;;;;13.81;52.72;99930.03;5109221;28;20452;-67
2023/04/26 06:11:57;;;;;;;6.88;3.17;;;;;;;13.90;52.72;99938.00;5109984;28;20066;-67
2023/04/26 06:14:23;;;;;;;5.25;2.42;;;;;;;14.01;52.39;99920.63;5109817;28;20027;-67
2023/04/26 06:16:48;;;;;;;7.07;2.80;;;;;;;14.36;50.67;99937.41;5110445;28;20052;-67
2023/04/26 06:19:13;;;;;;;8.63;2.95;;;;;;;14.37;50.12;99922.03;5110489;28;20020;-67
2023/04/26 06:21:39;;;;;;;4.35;2.70;;;;;;;14.36;50.53;99933.84;5109302;28;20521;-66
2023/04/26 06:24:05;;;;;;;9.30;2.90;;;;;;;14.49;50.46;99945.00;5110475;28;20921;-67
2023/04/26 06:26:31;;;;;;;4.30;2.42;;;;;;;14.63;47.80;99944.31;5110403;28;20036;-67
2023/04/26 06:28:56;;;;;;;8.65;3.00;;;;;;;14.58;48.56;99928.66;5110629;28;20801;-67
2023/04/26 06:31:22;;;;;;;4.45;2.50;;;;;;;14.73;49.46;99945.81;5110321;28;20072;-66
2023/04/26 06:33:47;;;;;;;6.63;3.45;;;;;;;14.90;48.60;99939.38;5110244;28;20087;-67
2023/04/26 06:36:13;;;;;;;4.82;3.08;;;;;;;14.91;49.12;99946.50;5109906;28;20118;-67
2023/04/26 06:38:39;;;;;;;5.82;3.22;;;;;;;14.96;49.01;99948.69;5110045;28;20779;-67
2023/04/26 06:41:04;;;;;;;5.65;2.78;;;;;;;15.07;49.04;99949.16;5110649;28;20468;-67
2023/04/26 06:43:29;;;;;;;5.32;2.92;;;;;;;15.22;48.20;99950.13;5109879;28;20639;-67
2023/04/26 06:45:55;;;;;;;8.10;3.35;;;;;;;15.39;48.26;99942.84;5110652;28;20475;-67
2023/04/26 06:48:20;;;;;;;3.80;2.70;;;;;;;15.61;48.62;99952.91;5110099;28;20110;-67
2023/04/26 06:50:46;;;;;;;4.60;3.58;;;;;;;15.78;48.75;99932.88;5110223;28;20467;-67
2023/04/26 06:53:12;;;;;;;7.50;3.22;;;;;;;16.24;45.84;99942.72;5108861;28;20475;-67
2023/04/26 06:55:38;;;;;;;6.10;2.95;;;;;;;16.06;46.90;99942.19;5110200;28;20126;-67
2023/04/26 06:58:03;;;;;;;5.95;3.20;;;;;;;16.18;46.63;99951.56;5110054;28;20103;-67
2023/04/26 07:00:29;;;;;;;7.18;2.88;;;;;;;16.24;46.37;99939.16;5106679;28;20032;-66
2023/04/26 07:02:54;;;;;;;8.02;3.40;;;;;;;16.57;43.54;99951.50;5104748;27;20132;-67
2023/04/26 07:05:20;;;;;;;7.15;3.13;;;;;;;16.37;44.39;99947.53;5108394;27;20035;-67
2023/04/26 07:07:46;;;;;;;6.93;2.88;;;;;;;16.54;43.06;99938.31;5108077;27;20456;-67
2023/04/26 07:10:12;;;;;;;6.50;2.78;;;;;;;16.54;42.02;99944.53;5106518;27;20732;-67
2023/04/26 07:12:38;;;;;;;6.28;2.63;;;;;;;16.51;42.60;99955.72;5107648;28;20038;-66
2023/04/26 07:15:05;;;;;;;6.22;2.35;;;;;;;16.53;42.05;99958.25;5106829;28;20028;-67
2023/04/26 07:17:31;;;;;;;7.20;3.10;;;;;;;16.54;42.25;99946.44;5106670;28;20076;-67
2023/04/26 07:19:57;;;;;;;6.30;2.80;;;;;;;16.69;41.71;99971.66;5109498;28;20024;-67
2023/04/26 07:22:22;;;;;;;7.90;2.72;;;;;;;16.82;39.42;99961.06;5108793;28;20023;-67
2023/04/26 07:24:48;;;;;;;3.75;2.40;;;;;;;16.61;40.27;99944.69;5108432;28;20026;-68
2023/04/26 07:27:13;;;;;;;8.45;2.63;;;;;;;16.85;39.36;99960.69;5107776;28;20076;-67
2023/04/26 07:29:39;;;;;;;8.18;2.28;;;;;;;16.70;39.49;99940.88;5109176;28;20026;-67
2023/04/26 07:32:05;;;;;;;5.63;2.40;;;;;;;16.91;39.82;99949.97;5110415;28;20050;-67
2023/04/26 07:34:31;;;;;;;7.07;3.25;;;;;;;16.87;39.62;99964.94;5108905;28;20090;-67
2023/04/26 07:36:56;;;;;;;6.35;2.92;;;;;;;16.61;39.98;99948.19;5108750;28;20532;-68
2023/04/26 07:39:22;;;;;;;9.50;2.75;;;;;;;16.85;39.75;99969.69;5109214;28;20096;-67
2023/04/26 07:41:47;;;;;;;5.18;2.75;;;;;;;16.78;39.99;99965.16;5109285;28;20035;-67
2023/04/26 07:44:13;;;;;;;10.07;2.83;;;;;;;16.61;40.39;99941.97;5106545;28;20036;-67
2023/04/26 07:46:38;;;;;;;4.65;2.75;;;;;;;16.81;39.67;99959.38;5108479;28;20019;-67
2023/04/26 07:49:04;;;;;;;10.05;2.70;;;;;;;16.77;38.73;99963.50;5110313;28;20046;-67
2023/04/26 07:51:30;;;;;;;10.23;2.95;;;;;;;16.70;39.09;99971.50;5109427;28;20395;-67
2023/04/26 07:53:55;;;;;;;5.35;3.08;;;;;;;16.60;40.20;99967.38;5109214;28;20059;-67
2023/04/26 07:56:23;;;;;;;9.35;3.08;;;;;;;16.61;39.87;99963.63;5108175;28;20054;-67
2023/04/26 07:58:49;;;;;;;8.10;3.20;;;;;;;16.79;38.70;99983.94;5109521;28;20019;-67
2023/04/26 08:01:14;;;;;;;9.48;3.03;;;;;;;16.88;37.92;99980.16;5108534;28;20035;-67
2023/04/26 08:03:41;;;;;;;8.15;3.53;;;;;;;16.93;36.68;99993.97;5109133;28;20074;-67
2023/04/26 08:06:07;;;;;;;5.43;2.63;;;;;;;16.98;36.26;99994.28;5109371;28;20092;-67
2023/04/26 08:08:36;;;;;;;9.30;3.25;;;;;;;16.79;36.31;99986.66;5108640;28;20632;-67
2023/04/26 08:11:06;;;;;;;13.90;3.38;;;;;;;16.73;36.44;99976.53;5110314;28;20510;-67
2023/04/26 08:13:32;;;;;;;5.20;2.67;;;;;;;16.73;37.23;99989.25;5109814;28;20083;-67
2023/04/26 08:15:57;;;;;;;5.75;2.47;;;;;;;17.14;37.10;99995.97;5110481;28;20694;-67
2023/04/26 08:18:22;;;;;;;4.95;2.45;;;;;;;17.34;38.08;100002.53;5108876;28;20058;-67
2023/04/26 08:20:48;;;;;;;9.63;3.00;;;;;;;17.75;37.14;100001.09;5109701;28;20019;-67
2023/04/26 08:23:13;;;;;;;6.18;2.42;;;;;;;18.55;35.75;99994.59;5110179;28;20035;-67
2023/04/26 08:25:39;;;;;;;6.38;2.47;;;;;;;19.04;33.67;99994.63;5110027;28;20289;-67
2023/04/26 08:28:06;;;;;;;7.13;2.65;;;;;;;19.86;33.00;100000.00;5109888;28;20023;-67
2023/04/26 08:30:32;;;;;;;7.90;3.05;;;;;;;20.85;30.87;99991.13;5109676;28;20028;-67
2023/04/26 08:32:57;;;;;;;8.18;3.28;;;;;;;22.00;29.33;100001.31;5110249;28;20142;-68
2023/04/26 08:35:23;;;;;;;4.72;2.47;;;;;;;23.53;26.42;99994.41;5109055;28;20020;-67
2023/04/26 08:37:48;;;;;;;7.22;2.85;;;;;;;23.20;26.17;99999.34;5108550;28;20046;-67
2023/04/26 08:40:23;;;;;;;4.38;2.22;;;;;;;23.69;25.50;99995.72;5109921;28;20376;-68
2023/04/26 08:42:51;;;;;;;6.28;2.60;;;;;;;22.87;26.98;99996.03;5108501;28;20027;-68
2023/04/26 08:45:17;;;;;;;7.57;2.80;;;;;;;23.12;26.41;99999.59;5108171;28;20036;-68
2023/04/26 08:47:46;;;;;;;6.88;2.55;;;;;;;22.41;26.40;100000.06;5109752;28;20031;-68
2023/04/26 08:50:13;;;;;;;6.35;2.42;;;;;;;21.65;27.12;100009.97;5109970;28;20108;-68
2023/04/26 08:52:40;;;;;;;5.25;2.75;;;;;;;21.15;28.17;99997.84;5109512;28;20157;-68
2023/04/26 08:55:08;;;;;;;6.15;2.25;;;;;;;20.73;28.72;100014.56;5108515;28;20476;-68
2023/04/26 08:57:34;;;;;;;10.48;2.78;;;;;;;20.36;29.50;100015.13;5110400;28;20129;-67
2023/04/26 09:00:04;;;;;;;7.00;2.83;;;;;;;19.82;29.99;100017.78;5114073;28;20107;-67
2023/04/26 09:02:30;;;;;;;5.95;2.90;;;;;;;19.37;30.45;100010.19;5113899;27;20476;-67
2023/04/26 09:04:55;;;;;;;4.63;2.55;;;;;;;19.12;31.25;100011.63;5113991;28;20032;-67
2023/04/26 09:07:32;;;;;;;6.88;3.08;;;;;;;18.88;31.84;100003.03;5113906;28;20042;-67
2023/04/26 09:09:58;;;;;;;13.00;3.30;;;;;;;19.02;31.50;100016.56;5114060;28;20069;-67
2023/04/26 09:12:24;;;;;;;6.30;2.60;;;;;;;18.68;32.37;100030.03;5113988;28;20494;-67
2023/04/26 09:14:50;;;;;;;8.75;3.05;;;;;;;18.56;32.54;100031.56;5113667;28;20039;-68
2023/04/26 09:17:31;;;;;;;8.10;2.65;;;;;;;18.29;32.52;100035.00;5113734;28;20496;-67
2023/04/26 09:19:58;;;;;;;7.18;2.67;;;;;;;18.18;32.75;100032.75;5113628;28;20031;-68
2023/04/26 09:22:33;;;;;;;8.13;3.13;;;;;;;18.49;31.39;100033.38;5113610;28;20023;-67
2023/04/26 09:25:00;;;;;;;7.43;2.60;;;;;;;18.04;32.44;100014.63;5113818;28;20042;-67
2023/04/26 09:27:51;;;;;;;9.82;3.33;;;;;;;18.10;33.19;100024.75;5112281;28;20096;-67
2023/04/26 09:30:19;;;;;;;6.97;2.35;;;;;;;17.79;33.78;100030.38;5109916;28;20127;-67
2023/04/26 09:33:03;;;;;;;9.93;3.00;;;;;;;17.93;33.03;100013.25;5113360;28;20063;-68
2023/04/26 09:35:40;;;;;;;8.38;3.33;;;;;;;17.58;33.11;100013.19;5112207;28;20027;-67
2023/04/26 09:38:11;;;;;;;6.00;3.03;;;;;;;17.41;34.94;100036.88;5113348;28;20435;-67
2023/04/26 09:40:39;;;;;;;10.88;3.75;;;;;;;17.32;34.64;100023.59;5112885;28;20048;-67
2023/04/26 09:43:06;;;;;;;8.45;3.53;;;;;;;17.27;34.38;100020.59;5113347;28;20084;-67
2023/04/26 09:45:43;;;;;;;10.32;3.95;;;;;;;17.13;34.78;100014.13;5111665;28;20031;-67
2023/04/26 09:48:13;;;;;;;9.27;2.95;;;;;;;17.38;33.94;100028.28;5113166;28;20035;-67
2023/04/26 09:50:39;;;;;;;10.25;3.05;;;;;;;17.28;34.08;100030.41;5111419;28;20447;-67
2023/04/26 09:53:04;;;;;;;10.82;3.05;;;;;;;17.35;33.06;100013.19;5111888;28;20055;-67
2023/04/26 09:55:31;;;;;;;6.50;2.63;;;;;;;17.46;33.46;100011.94;5113261;28;20012;-67
2023/04/26 09:57:59;;;;;;;8.55;2.42;;;;;;;17.31;33.85;100005.63;5113004;28;20027;-67
2023/04/26 10:00:26;;;;;;;7.53;3.08;;;;;;;17.23;34.77;100019.28;5112798;28;20421;-67
2023/04/26 10:02:55;;;;;;;6.57;2.72;;;;;;;17.18;34.18;100013.56;5112858;28;20049;-68
2023/04/26 10:05:21;;;;;;;6.63;2.92;;;;;;;17.15;34.34;100016.66;5112880;28;20054;-67
2023/04/26 10:07:48;;;;;;;5.40;2.88;;;;;;;17.16;34.58;100007.50;5112711;28;20031;-67
2023/04/26 10:10:16;;;;;;;8.15;3.22;;;;;;;17.19;34.21;100016.06;5110400;28;20107;-67
2023/04/26 10:12:42;;;;;;;8.38;2.55;;;;;;;17.42;33.93;100025.03;5112760;28;20031;-68
2023/04/26 10:15:10;;;;;;;5.90;2.33;;;;;;;17.22;34.21;100023.84;5112994;28;20058;-67
2023/04/26 10:17:36;;;;;;;10.07;3.22;;;;;;;17.13;34.65;100008.72;5112578;28;20039;-67
2023/04/26 10:20:04;;;;;;;10.07;3.20;;;;;;;17.14;35.42;100023.09;5112347;28;20080;-67
2023/04/26 10:22:36;;;;;;;10.55;2.67;;;;;;;17.13;34.86;100024.13;5112756;28;20479;-67
2023/04/26 10:25:01;;;;;;;9.90;3.58;;;;;;;17.37;33.96;100013.03;5112544;28;20028;-67
2023/04/26 10:27:42;;;;;;;9.82;2.83;;;;;;;17.42;33.52;100024.16;5112341;28;20543;-67
2023/04/26 10:30:10;;;;;;;7.55;2.60;;;;;;;17.15;34.54;100024.78;5110658;28;20479;-61
2023/04/26 10:32:54;;;;;;;8.02;2.75;;;;;;;17.05;35.54;100027.75;5111891;28;20411;-62
2023/04/26 10:35:21;;;;;;;4.85;2.47;;;;;;;16.98;35.65;100032.22;5112269;27;20499;-62
2023/04/26 10:37:58;;;;;;;9.07;2.72;;;;;;;16.97;34.90;100035.94;5111863;28;20039;-62
2023/04/26 10:40:26;;;;;;;6.75;2.40;;;;;;;16.90;34.92;100024.13;5111992;28;20449;-62
2023/04/26 10:43:14;;;;;;;9.43;3.03;;;;;;;16.92;35.05;100021.25;5110561;28;20070;-62
2023/04/26 10:45:46;;;;;;;9.88;2.97;;;;;;;16.97;35.96;100033.25;5111582;28;20030;-62
2023/04/26 10:48:17;;;;;;;6.82;3.10;;;;;;;17.03;36.01;100034.38;5112013;28;20483;-62
2023/04/26 10:51:00;;;;;;;7.88;2.75;;;;;;;16.94;35.71;100035.47;5111744;28;20675;-62
2023/04/26 10:53:26;;;;;;;11.30;3.20;;;;;;;16.96;35.28;100030.72;5111771;27;20402;-61
2023/04/26 10:55:53;;;;;;;8.48;2.50;;;;;;;16.86;35.54;100030.94;5111831;27;20023;-62
2023/04/26 10:58:27;;;;;;;7.78;3.35;;;;;;;16.79;34.72;100007.47;5111861;28;20096;-62
2023/04/26 11:01:16;;;;;;;9.77;3.13;;;;;;;16.90;34.71;100039.56;5111468;28;20031;-61
2023/04/26 11:03:44;;;;;;;7.88;2.22;;;;;;;16.73;34.27;100011.75;5111344;28;20110;-62
2023/04/26 11:06:14;;;;;;;6.18;2.38;;;;;;;16.79;34.44;100019.16;5111600;28;20502;-62
2023/04/26 11:08:39;;;;;;;9.98;3.22;;;;;;;16.86;34.81;100020.09;5111332;28;20028;-62
2023/04/26 11:11:09;;;;;;;11.15;2.63;;;;;;;16.86;34.22;100022.00;5111765;28;20034;-62
2023/04/26 11:13:38;;;;;;;10.40;3.00;;;;;;;17.04;33.59;100020.66;5111356;28;20127;-61
2023/04/26 11:16:13;;;;;;;7.63;2.40;;;;;;;16.91;34.16;100031.25;5111665;28;20391;-61
2023/04/26 11:18:41;;;;;;;4.55;2.40;;;;;;;16.82;34.47;100015.25;5111114;28;20380;-62
2023/04/26 11:21:07;;;;;;;7.47;2.50;;;;;;;16.78;35.44;100031.03;5111083;28;20535;-61
2023/04/26 11:23:34;;;;;;;7.53;2.50;;;;;;;16.82;34.79;100021.50;5111346;28;20379;-62
2023/04/26 11:26:03;;;;;;;5.43;2.15;;;;;;;16.83;34.86;100034.00;5110729;28;20024;-63
2023/04/26 11:28:30;;;;;;;5.55;2.58;;;;;;;16.93;33.88;100017.53;5110964;28;20024;-62
2023/04/26 11:30:56;;;;;;;8.35;3.03;;;;;;;17.11;33.81;100042.41;5110369;27;20024;-61
2023/04/26 11:33:22;;;;;;;6.25;1.90;;;;;;;17.01;33.53;100018.28;5109772;28;20039;-62